createdAt,value
2019-05-09T00:00:10.461Z,84.37
2019-05-09T00:01:10.452Z,84.47
2019-05-09T00:02:10.442Z,85.43
2019-05-09T00:03:10.429Z,85.22
2019-05-09T00:04:10.419Z,86.35
2019-05-09T00:05:10.406Z,86.35
2019-05-09T00:06:10.397Z,86.55
2019-05-09T00:07:10.390Z,86.59
2019-05-09T00:08:10.376Z,87.67
2019-05-09T00:09:10.377Z,87.06
2019-05-09T00:10:10.357Z,87.00
2019-05-09T00:11:10.344Z,87.51
2019-05-09T00:12:10.334Z,87.61
2019-05-09T00:13:10.320Z,88.08
2019-05-09T00:14:10.311Z,89.04
2019-05-09T00:15:10.302Z,88.73
2019-05-09T00:16:10.291Z,88.53
2019-05-09T00:17:10.279Z,88.43
2019-05-09T00:18:10.269Z,88.22
2019-05-09T00:19:10.257Z,88.08
2019-05-09T00:20:10.245Z,88.53
2019-05-09T00:21:10.234Z,88.53
2019-05-09T00:22:10.226Z,89.04
2019-05-09T00:23:10.213Z,88.02
2019-05-09T00:24:10.209Z,88.12
2019-05-09T00:25:10.195Z,88.43
2019-05-09T00:26:10.182Z,88.02
2019-05-09T00:27:10.171Z,88.63
2019-05-09T00:28:10.161Z,89.04
2019-05-09T00:29:10.148Z,89.25
2019-05-09T00:30:10.141Z,88.53
2019-05-09T00:31:10.131Z,88.93
2019-05-09T00:32:10.118Z,88.73
2019-05-09T00:33:10.111Z,89.28
2019-05-09T00:34:10.096Z,88.32
2019-05-09T00:35:10.087Z,88.78
2019-05-09T00:36:10.083Z,87.96
2019-05-09T00:37:10.064Z,88.12
2019-05-09T00:38:10.055Z,88.02
2019-05-09T00:39:10.051Z,88.02
2019-05-09T00:40:10.032Z,87.71
2019-05-09T00:41:10.024Z,87.61
2019-05-09T00:42:10.012Z,87.51
2019-05-09T00:43:09.997Z,87.30
2019-05-09T00:44:09.996Z,87.51
2019-05-09T00:45:09.978Z,87.61
2019-05-09T00:46:09.967Z,88.02
2019-05-09T00:47:09.964Z,87.71
2019-05-09T00:48:09.952Z,88.43
2019-05-09T00:49:09.935Z,88.22
2019-05-09T00:50:09.927Z,87.82
2019-05-09T00:51:09.915Z,87.82
2019-05-09T00:52:09.906Z,87.30
2019-05-09T00:53:09.892Z,87.71
2019-05-09T00:54:09.884Z,87.76
2019-05-09T00:55:09.871Z,88.12
2019-05-09T00:56:09.860Z,87.41
2019-05-09T00:57:09.849Z,87.20
2019-05-09T00:58:09.837Z,87.30
2019-05-09T00:59:09.827Z,86.90
2019-05-09T01:00:09.818Z,87.20
2019-05-09T01:01:09.806Z,86.90
2019-05-09T01:02:09.795Z,86.90
2019-05-09T01:03:09.785Z,86.59
2019-05-09T01:04:09.776Z,86.59
2019-05-09T01:05:09.764Z,86.39
2019-05-09T01:06:09.753Z,86.29
2019-05-09T01:07:09.742Z,86.49
2019-05-09T01:08:09.731Z,85.88
2019-05-09T01:09:09.719Z,84.96
2019-05-09T01:10:09.711Z,84.96
2019-05-09T01:11:14.630Z,84.51
2019-05-09T01:12:10.686Z,84.55
2019-05-09T01:13:09.678Z,84.96
2019-05-09T01:14:09.668Z,85.06
2019-05-09T01:15:09.668Z,84.66
2019-05-09T01:16:09.648Z,84.55
2019-05-09T01:17:09.639Z,84.66
2019-05-09T01:18:09.625Z,84.66
2019-05-09T01:19:09.615Z,83.59
2019-05-09T01:20:09.604Z,84.75
2019-05-09T01:21:09.592Z,84.66
2019-05-09T01:22:09.580Z,84.45
2019-05-09T01:23:09.570Z,84.55
2019-05-09T01:24:09.560Z,84.86
2019-05-09T01:25:09.550Z,84.55
2019-05-09T01:26:09.538Z,84.75
2019-05-09T01:27:09.530Z,84.75
2019-05-09T01:28:09.518Z,84.96
2019-05-09T01:29:09.506Z,85.06
2019-05-09T01:30:09.497Z,85.06
2019-05-09T01:31:09.487Z,85.27
2019-05-09T01:32:09.475Z,86.29
2019-05-09T01:33:09.465Z,86.29
2019-05-09T01:34:09.452Z,86.33
2019-05-09T01:35:09.443Z,86.63
2019-05-09T01:36:09.437Z,86.43
2019-05-09T01:37:09.432Z,86.53
2019-05-09T01:38:09.412Z,86.18
2019-05-09T01:39:09.400Z,86.83
2019-05-09T01:40:09.387Z,86.83
2019-05-09T01:41:22.854Z,86.59
2019-05-09T01:42:10.366Z,86.69
2019-05-09T01:43:09.357Z,86.80
2019-05-09T01:44:09.346Z,86.43
2019-05-09T01:45:09.337Z,86.69
2019-05-09T01:46:09.324Z,87.30
2019-05-09T01:47:09.315Z,86.83
2019-05-09T01:48:09.303Z,87.65
2019-05-09T01:49:09.292Z,87.35
2019-05-09T01:50:09.285Z,86.94
2019-05-09T01:51:09.273Z,87.04
2019-05-09T01:52:09.262Z,87.14
2019-05-09T01:53:09.251Z,86.94
2019-05-09T01:54:09.239Z,87.35
2019-05-09T01:55:09.230Z,87.76
2019-05-09T01:56:09.217Z,87.35
2019-05-09T01:57:09.208Z,87.24
2019-05-09T01:58:09.198Z,87.24
2019-05-09T01:59:09.186Z,87.35
2019-05-09T02:00:09.175Z,87.65
2019-05-09T02:01:09.166Z,87.24
2019-05-09T02:02:09.209Z,87.45
2019-05-09T02:03:09.144Z,87.24
2019-05-09T02:04:09.134Z,87.76
2019-05-09T02:05:09.123Z,87.55
2019-05-09T02:06:09.113Z,87.45
2019-05-09T02:07:09.104Z,87.85
2019-05-09T02:08:09.092Z,87.85
2019-05-09T02:09:09.078Z,88.37
2019-05-09T02:10:09.070Z,88.37
2019-05-09T02:11:09.056Z,88.26
2019-05-09T02:12:09.045Z,87.65
2019-05-09T02:13:09.037Z,87.65
2019-05-09T02:14:09.025Z,87.65
2019-05-09T02:15:09.016Z,87.24
2019-05-09T02:16:09.008Z,87.76
2019-05-09T02:17:08.997Z,87.45
2019-05-09T02:18:08.981Z,86.94
2019-05-09T02:19:08.970Z,87.35
2019-05-09T02:20:08.964Z,87.76
2019-05-09T02:21:11.452Z,87.55
2019-05-09T02:22:09.937Z,87.45
2019-05-09T02:23:08.927Z,87.65
2019-05-09T02:24:08.916Z,87.35
2019-05-09T02:25:08.909Z,87.65
2019-05-09T02:26:08.893Z,87.65
2019-05-09T02:27:08.883Z,86.94
2019-05-09T02:28:08.874Z,87.24
2019-05-09T02:29:08.861Z,87.85
2019-05-09T02:30:08.852Z,86.94
2019-05-09T02:31:08.849Z,87.35
2019-05-09T02:32:08.843Z,87.14
2019-05-09T02:33:08.818Z,87.65
2019-05-09T02:34:08.809Z,87.14
2019-05-09T02:35:08.814Z,87.14
2019-05-09T02:36:09.777Z,87.24
2019-05-09T02:37:09.402Z,87.14
2019-05-09T02:38:09.654Z,86.83
2019-05-09T02:39:09.235Z,87.24
2019-05-09T02:40:10.042Z,86.83
2019-05-09T02:41:08.835Z,86.83
2019-05-09T02:42:13.355Z,86.43
2019-05-09T02:43:10.143Z,86.73
2019-05-09T02:44:09.467Z,86.43
2019-05-09T02:45:08.692Z,86.83
2019-05-09T02:46:09.762Z,86.53
2019-05-09T02:47:09.289Z,86.63
2019-05-09T02:48:09.544Z,86.22
2019-05-09T02:49:09.074Z,86.43
2019-05-09T02:50:09.468Z,86.22
2019-05-09T02:51:09.339Z,86.43
2019-05-09T02:52:08.994Z,86.33
2019-05-09T02:53:08.604Z,86.53
2019-05-09T02:54:09.951Z,86.43
2019-05-09T02:55:09.765Z,86.43
2019-05-09T02:56:09.321Z,85.92
2019-05-09T02:57:09.466Z,86.39
2019-05-09T02:58:08.552Z,86.33
2019-05-09T02:59:09.670Z,86.08
2019-05-09T03:00:08.842Z,86.22
2019-05-09T03:01:08.579Z,85.92
2019-05-09T03:02:09.629Z,86.22
2019-05-09T03:03:09.415Z,86.02
2019-05-09T03:04:08.647Z,85.30
2019-05-09T03:05:08.992Z,85.61
2019-05-09T03:06:09.358Z,86.33
2019-05-09T03:07:09.666Z,86.02
2019-05-09T03:08:09.249Z,85.82
2019-05-09T03:09:09.097Z,85.92
2019-05-09T03:10:09.012Z,86.43
2019-05-09T03:11:09.830Z,85.82
2019-05-09T03:12:23.027Z,86.22
2019-05-09T03:13:09.632Z,85.82
2019-05-09T03:14:09.272Z,85.41
2019-05-09T03:15:09.181Z,85.30
2019-05-09T03:16:08.740Z,85.41
2019-05-09T03:17:09.092Z,85.41
2019-05-09T03:18:09.090Z,86.33
2019-05-09T03:19:09.262Z,86.12
2019-05-09T03:20:09.489Z,86.43
2019-05-09T03:21:09.107Z,86.47
2019-05-09T03:22:08.815Z,86.43
2019-05-09T03:23:09.288Z,86.53
2019-05-09T03:24:09.853Z,86.22
2019-05-09T03:25:09.206Z,86.36
2019-05-09T03:26:09.166Z,86.43
2019-05-09T03:27:08.691Z,86.47
2019-05-09T03:28:09.678Z,86.26
2019-05-09T03:29:08.993Z,86.36
2019-05-09T03:30:12.048Z,86.22
2019-05-09T03:31:09.442Z,86.57
2019-05-09T03:32:09.387Z,86.22
2019-05-09T03:33:10.310Z,86.26
2019-05-09T03:34:09.455Z,86.43
2019-05-09T03:35:08.493Z,86.43
2019-05-09T03:36:08.136Z,86.57
2019-05-09T03:37:08.570Z,86.47
2019-05-09T03:38:08.499Z,86.47
2019-05-09T03:39:08.293Z,86.47
2019-05-09T03:40:08.089Z,86.22
2019-05-09T03:41:08.615Z,86.26
2019-05-09T03:42:08.066Z,86.16
2019-05-09T03:43:08.241Z,86.47
2019-05-09T03:44:08.048Z,86.26
2019-05-09T03:45:08.343Z,86.57
2019-05-09T03:46:08.024Z,86.47
2019-05-09T03:47:08.442Z,86.36
2019-05-09T03:48:08.007Z,86.88
2019-05-09T03:49:07.996Z,86.57
2019-05-09T03:50:08.298Z,86.67
2019-05-09T03:51:08.186Z,86.77
2019-05-09T03:52:07.960Z,86.67
2019-05-09T03:53:08.470Z,86.57
2019-05-09T03:54:08.231Z,86.57
2019-05-09T03:55:07.931Z,86.26
2019-05-09T03:56:08.022Z,86.98
2019-05-09T03:57:07.907Z,86.43
2019-05-09T03:58:07.897Z,86.53
2019-05-09T03:59:08.414Z,86.57
2019-05-09T04:00:07.872Z,86.22
2019-05-09T04:01:10.315Z,86.02
2019-05-09T04:02:10.184Z,86.33
2019-05-09T04:03:08.235Z,85.92
2019-05-09T04:04:08.808Z,86.33
2019-05-09T04:05:08.251Z,85.21
2019-05-09T04:06:08.423Z,85.10
2019-05-09T04:07:08.405Z,85.51
2019-05-09T04:08:07.788Z,85.41
2019-05-09T04:09:07.778Z,85.41
2019-05-09T04:10:07.922Z,85.41
2019-05-09T04:11:08.551Z,85.21
2019-05-09T04:12:07.743Z,85.61
2019-05-09T04:13:08.257Z,85.51
2019-05-09T04:14:08.340Z,85.41
2019-05-09T04:15:08.430Z,84.90
2019-05-09T04:16:07.717Z,84.80
2019-05-09T04:17:07.952Z,84.55
2019-05-09T04:18:08.238Z,84.90
2019-05-09T04:19:08.317Z,84.75
2019-05-09T04:20:08.179Z,84.45
2019-05-09T04:21:08.397Z,84.66
2019-05-09T04:22:08.131Z,84.66
2019-05-09T04:23:07.974Z,85.27
2019-05-09T04:24:08.493Z,84.34
2019-05-09T04:25:08.045Z,84.25
2019-05-09T04:26:07.712Z,84.75
2019-05-09T04:27:07.901Z,84.51
2019-05-09T04:28:07.569Z,84.31
2019-05-09T04:29:08.091Z,84.82
2019-05-09T04:30:09.402Z,84.45
2019-05-09T04:31:07.535Z,84.51
2019-05-09T04:32:08.073Z,84.41
2019-05-09T04:33:07.518Z,84.45
2019-05-09T04:34:09.696Z,84.92
2019-05-09T04:35:08.097Z,84.86
2019-05-09T04:36:08.361Z,84.75
2019-05-09T04:37:08.490Z,84.61
2019-05-09T04:38:07.513Z,84.34
2019-05-09T04:39:07.703Z,84.34
2019-05-09T04:40:08.275Z,84.45
2019-05-09T04:41:07.540Z,83.94
2019-05-09T04:42:08.279Z,84.55
2019-05-09T04:43:15.394Z,84.45
2019-05-09T04:44:14.206Z,84.61
2019-05-09T04:45:10.246Z,84.66
2019-05-09T04:46:07.978Z,84.45
2019-05-09T04:47:08.713Z,84.51
2019-05-09T04:48:07.796Z,84.61
2019-05-09T04:49:08.226Z,84.72
2019-05-09T04:50:07.668Z,84.31
2019-05-09T04:51:08.029Z,84.41
2019-05-09T04:52:07.739Z,84.66
2019-05-09T04:53:07.981Z,84.00
2019-05-09T04:54:07.404Z,83.90
2019-05-09T04:55:07.860Z,83.18
2019-05-09T04:56:07.307Z,83.90
2019-05-09T04:57:07.962Z,84.00
2019-05-09T04:58:09.258Z,84.31
2019-05-09T04:59:07.564Z,83.80
2019-05-09T05:00:07.965Z,84.51
2019-05-09T05:01:07.377Z,84.61
2019-05-09T05:02:08.688Z,84.31
2019-05-09T05:03:07.970Z,83.59
2019-05-09T05:04:07.794Z,83.39
2019-05-09T05:05:07.789Z,84.67
2019-05-09T05:06:07.737Z,83.04
2019-05-09T05:07:07.717Z,83.35
2019-05-09T05:08:07.591Z,84.47
2019-05-09T05:09:07.837Z,83.15
2019-05-09T05:10:09.011Z,83.15
2019-05-09T05:11:07.567Z,82.84
2019-05-09T05:12:08.432Z,83.56
2019-05-09T05:13:07.786Z,83.25
2019-05-09T05:14:09.197Z,83.35
2019-05-09T05:15:08.002Z,82.94
2019-05-09T05:16:08.334Z,83.25
2019-05-09T05:17:10.899Z,83.29
2019-05-09T05:18:08.568Z,83.59
2019-05-09T05:19:07.564Z,83.49
2019-05-09T05:20:08.381Z,83.39
2019-05-09T05:21:07.793Z,83.09
2019-05-09T05:22:07.468Z,83.80
2019-05-09T05:23:08.231Z,83.80
2019-05-09T05:24:08.191Z,83.39
2019-05-09T05:25:09.291Z,84.61
2019-05-09T05:26:09.214Z,84.61
2019-05-09T05:27:08.249Z,84.72
2019-05-09T05:28:08.565Z,84.58
2019-05-09T05:29:08.425Z,84.51
2019-05-09T05:30:07.637Z,84.67
2019-05-09T05:31:07.477Z,83.25
2019-05-09T05:32:08.538Z,83.35
2019-05-09T05:33:08.083Z,83.56
2019-05-09T05:34:08.331Z,83.65
2019-05-09T05:35:07.599Z,83.15
2019-05-09T05:36:07.918Z,83.15
2019-05-09T05:37:07.532Z,83.11
2019-05-09T05:38:08.531Z,83.25
2019-05-09T05:39:07.537Z,83.31
2019-05-09T05:40:07.830Z,82.80
2019-05-09T05:41:08.032Z,83.45
2019-05-09T05:42:08.262Z,83.04
2019-05-09T05:43:08.778Z,83.35
2019-05-09T05:44:08.534Z,83.04
2019-05-09T05:45:07.517Z,83.01
2019-05-09T05:46:07.670Z,83.31
2019-05-09T05:47:07.723Z,83.11
2019-05-09T05:48:07.894Z,82.60
2019-05-09T05:49:08.075Z,82.09
2019-05-09T05:50:08.365Z,81.88
2019-05-09T05:51:08.153Z,81.79
2019-05-09T05:52:08.063Z,82.26
2019-05-09T05:53:07.976Z,81.54
2019-05-09T05:54:07.780Z,81.24
2019-05-09T05:55:07.561Z,80.93
2019-05-09T05:56:08.527Z,81.85
2019-05-09T05:57:08.459Z,80.93
2019-05-09T05:58:08.566Z,81.04
2019-05-09T05:59:08.506Z,81.07
2019-05-09T06:00:07.882Z,81.24
2019-05-09T06:01:08.240Z,81.24
2019-05-09T06:02:08.590Z,81.07
2019-05-09T06:03:08.747Z,81.17
2019-05-09T06:04:07.627Z,81.07
2019-05-09T06:05:08.515Z,80.93
2019-05-09T06:06:08.617Z,80.77
2019-05-09T06:07:07.964Z,81.24
2019-05-09T06:08:08.186Z,81.07
2019-05-09T06:09:08.302Z,80.77
2019-05-09T06:10:08.217Z,80.56
2019-05-09T06:11:11.434Z,81.07
2019-05-09T06:12:08.326Z,81.07
2019-05-09T06:13:07.947Z,80.77
2019-05-09T06:14:11.457Z,81.17
2019-05-09T06:15:07.723Z,81.17
2019-05-09T06:16:08.520Z,80.77
2019-05-09T06:17:08.037Z,80.66
2019-05-09T06:18:07.950Z,80.16
2019-05-09T06:19:08.804Z,79.64
2019-05-09T06:20:08.817Z,80.05
2019-05-09T06:21:08.673Z,79.85
2019-05-09T06:22:08.189Z,80.11
2019-05-09T06:23:08.436Z,79.81
2019-05-09T06:24:08.468Z,80.32
2019-05-09T06:25:09.889Z,80.22
2019-05-09T06:26:10.018Z,79.10
2019-05-09T06:27:09.842Z,79.10
2019-05-09T06:28:07.635Z,79.47
2019-05-09T06:29:08.081Z,79.10
2019-05-09T06:30:08.434Z,78.96
2019-05-09T06:31:07.531Z,79.16
2019-05-09T06:32:07.834Z,79.06
2019-05-09T06:33:08.718Z,78.25
2019-05-09T06:34:08.361Z,78.45
2019-05-09T06:35:08.194Z,78.35
2019-05-09T06:36:07.945Z,79.88
2019-05-09T06:37:09.055Z,78.35
2019-05-09T06:38:07.847Z,78.35
2019-05-09T06:39:08.148Z,78.86
2019-05-09T06:40:08.129Z,79.16
2019-05-09T06:41:08.483Z,78.76
2019-05-09T06:42:08.571Z,79.00
2019-05-09T06:43:08.021Z,79.61
2019-05-09T06:44:14.337Z,79.50
2019-05-09T06:45:07.744Z,79.00
2019-05-09T06:46:08.075Z,78.80
2019-05-09T06:47:08.319Z,78.89
2019-05-09T06:48:07.604Z,79.00
2019-05-09T06:49:21.450Z,78.59
2019-05-09T06:50:08.013Z,79.47
2019-05-09T06:51:07.323Z,78.35
2019-05-09T06:52:08.530Z,79.16
2019-05-09T06:53:08.017Z,78.39
2019-05-09T06:54:07.949Z,78.96
2019-05-09T06:55:08.354Z,78.35
2019-05-09T06:56:07.432Z,78.35
2019-05-09T06:57:07.970Z,78.45
2019-05-09T06:58:05.948Z,78.45
2019-05-09T06:59:07.620Z,77.33
2019-05-09T07:00:08.295Z,77.74
2019-05-09T07:01:07.697Z,77.20
2019-05-09T07:02:08.048Z,77.40
2019-05-09T07:03:08.095Z,77.13
2019-05-09T07:04:05.883Z,78.25
2019-05-09T07:05:07.618Z,77.29
2019-05-09T07:06:08.290Z,76.48
2019-05-09T07:07:08.005Z,76.38
2019-05-09T07:08:07.992Z,76.65
2019-05-09T07:09:08.224Z,76.25
2019-05-09T07:10:07.568Z,75.70
2019-05-09T07:11:07.579Z,75.67
2019-05-09T07:12:07.849Z,73.22
2019-05-09T07:13:07.849Z,73.43
2019-05-09T07:14:05.772Z,73.09
2019-05-09T07:15:05.764Z,72.31
2019-05-09T07:16:05.752Z,72.78
2019-05-09T07:17:07.934Z,71.60
2019-05-09T07:18:07.960Z,70.99
2019-05-09T07:19:07.858Z,71.50
2019-05-09T07:20:08.189Z,72.62
2019-05-09T07:21:08.060Z,71.50
2019-05-09T07:22:05.691Z,72.21
2019-05-09T07:23:05.679Z,71.80
2019-05-09T07:24:07.809Z,72.55
2019-05-09T07:25:10.240Z,72.52
2019-05-09T07:26:07.681Z,71.53
2019-05-09T07:27:07.353Z,72.14
2019-05-09T07:28:07.674Z,72.21
2019-05-09T07:29:07.454Z,71.94
2019-05-09T07:30:07.702Z,71.53
2019-05-09T07:31:07.684Z,73.06
2019-05-09T07:32:07.519Z,72.65
2019-05-09T07:33:05.569Z,72.04
2019-05-09T07:34:05.563Z,71.73
2019-05-09T07:35:05.549Z,72.92
2019-05-09T07:36:05.537Z,71.80
2019-05-09T07:37:05.527Z,71.50
2019-05-09T07:38:05.517Z,71.84
2019-05-09T07:39:05.504Z,71.43
2019-05-09T07:40:05.494Z,71.94
2019-05-09T07:41:05.485Z,71.20
2019-05-09T07:42:07.648Z,71.09
2019-05-09T07:43:07.747Z,70.89
2019-05-09T07:44:07.601Z,70.68
2019-05-09T07:45:05.441Z,71.09
2019-05-09T07:46:05.429Z,71.06
2019-05-09T07:47:07.583Z,71.26
2019-05-09T07:48:07.465Z,70.65
2019-05-09T07:49:05.399Z,71.16
2019-05-09T07:50:08.242Z,70.83
2019-05-09T07:51:07.598Z,70.65
2019-05-09T07:52:09.222Z,69.51
2019-05-09T07:53:05.354Z,69.51
2019-05-09T07:54:20.671Z,70.52
2019-05-09T07:55:08.487Z,68.79
2019-05-09T07:56:07.704Z,69.71
2019-05-09T07:57:05.311Z,70.89
2019-05-09T07:58:07.765Z,69.17
2019-05-09T07:59:07.510Z,69.57
2019-05-09T08:00:07.634Z,68.66
2019-05-09T08:01:05.268Z,68.79
2019-05-09T08:02:05.263Z,68.49
2019-05-09T08:03:08.330Z,70.32
2019-05-09T08:04:07.514Z,69.10
2019-05-09T08:05:05.229Z,68.56
2019-05-09T08:06:05.215Z,69.17
2019-05-09T08:07:05.205Z,69.71
2019-05-09T08:08:07.334Z,69.81
2019-05-09T08:09:05.188Z,69.81
2019-05-09T08:10:05.181Z,70.08
2019-05-09T08:11:05.161Z,69.47
2019-05-09T08:12:07.366Z,69.57
2019-05-09T08:13:08.289Z,69.60
2019-05-09T08:14:10.459Z,68.90
2019-05-09T08:15:13.660Z,70.32
2019-05-09T08:16:07.925Z,69.91
2019-05-09T08:17:08.408Z,70.42
2019-05-09T08:18:05.088Z,69.81
2019-05-09T08:19:07.333Z,69.71
2019-05-09T08:20:05.067Z,70.01
2019-05-09T08:21:05.055Z,70.32
2019-05-09T08:22:05.046Z,70.32
2019-05-09T08:23:05.032Z,69.84
2019-05-09T08:24:05.022Z,69.81
2019-05-09T08:25:05.011Z,70.21
2019-05-09T08:26:05.002Z,70.42
2019-05-09T08:27:04.992Z,71.64
2019-05-09T08:28:04.981Z,70.52
2019-05-09T08:29:04.972Z,68.70
2019-05-09T08:30:07.695Z,69.43
2019-05-09T08:31:08.023Z,70.55
2019-05-09T08:32:07.263Z,70.35
2019-05-09T08:33:04.928Z,70.76
2019-05-09T08:34:04.921Z,70.65
2019-05-09T08:35:04.922Z,71.06
2019-05-09T08:36:04.897Z,70.96
2019-05-09T08:37:04.884Z,71.47
2019-05-09T08:38:04.873Z,71.88
2019-05-09T08:39:04.862Z,69.51
2019-05-09T08:40:04.851Z,70.42
2019-05-09T08:41:04.841Z,69.81
2019-05-09T08:42:04.830Z,69.91
2019-05-09T08:43:04.821Z,69.60
2019-05-09T08:44:04.808Z,70.32
2019-05-09T08:45:04.797Z,70.52
2019-05-09T08:46:04.786Z,71.03
2019-05-09T08:47:04.778Z,70.62
2019-05-09T08:48:04.769Z,69.68
2019-05-09T08:49:04.757Z,69.68
2019-05-09T08:50:04.743Z,68.46
2019-05-09T08:51:04.734Z,67.75
2019-05-09T08:52:13.076Z,68.26
2019-05-09T08:53:07.988Z,69.95
2019-05-09T08:54:04.703Z,68.60
2019-05-09T08:55:04.695Z,67.48
2019-05-09T08:56:04.685Z,67.38
2019-05-09T08:57:04.671Z,67.55
2019-05-09T08:58:04.664Z,66.64
2019-05-09T08:59:04.649Z,67.14
2019-05-09T09:00:04.637Z,68.46
2019-05-09T09:01:04.720Z,66.13
2019-05-09T09:02:15.703Z,66.27
2019-05-09T09:03:07.768Z,67.00
2019-05-09T09:04:04.596Z,68.43
2019-05-09T09:05:04.598Z,68.12
2019-05-09T09:06:04.571Z,67.92
2019-05-09T09:07:04.560Z,68.49
2019-05-09T09:08:04.551Z,67.08
2019-05-09T09:09:04.540Z,66.74
2019-05-09T09:10:04.528Z,67.96
2019-05-09T09:11:04.516Z,66.20
2019-05-09T09:12:21.196Z,66.67
2019-05-09T09:13:05.495Z,64.45
2019-05-09T09:14:04.484Z,64.89
2019-05-09T09:15:04.473Z,66.13
2019-05-09T09:16:11.763Z,66.33
2019-05-09T09:17:07.750Z,66.24
2019-05-09T09:18:04.441Z,66.03
2019-05-09T09:19:04.430Z,65.93
2019-05-09T09:20:04.419Z,66.37
2019-05-09T09:21:04.408Z,67.79
2019-05-09T09:22:04.397Z,65.76
2019-05-09T09:23:04.386Z,67.08
2019-05-09T09:24:04.377Z,65.67
2019-05-09T09:25:04.369Z,64.73
2019-05-09T09:26:04.355Z,64.93
2019-05-09T09:27:04.343Z,64.22
2019-05-09T09:28:04.333Z,64.70
2019-05-09T09:29:04.322Z,63.68
2019-05-09T09:30:17.724Z,63.75
2019-05-09T09:31:07.887Z,64.79
2019-05-09T09:32:04.290Z,66.13
2019-05-09T09:33:04.280Z,66.20
2019-05-09T09:34:04.279Z,65.90
2019-05-09T09:35:04.265Z,65.87
2019-05-09T09:36:04.250Z,65.26
2019-05-09T09:37:06.108Z,66.72
2019-05-09T09:38:05.223Z,62.48
2019-05-09T09:39:04.216Z,60.53
2019-05-09T09:40:04.203Z,61.32
2019-05-09T09:41:04.192Z,60.41
2019-05-09T09:42:04.186Z,60.08
2019-05-09T09:43:04.172Z,59.93
2019-05-09T09:44:04.165Z,60.29
2019-05-09T09:45:04.152Z,62.16
2019-05-09T09:46:11.031Z,63.75
2019-05-09T09:47:07.232Z,63.98
2019-05-09T09:48:04.119Z,64.69
2019-05-09T09:49:04.109Z,65.16
2019-05-09T09:50:04.267Z,65.16
2019-05-09T09:51:04.088Z,64.62
2019-05-09T09:52:04.099Z,64.42
2019-05-09T09:53:04.068Z,64.83
2019-05-09T09:54:04.054Z,64.39
2019-05-09T09:55:04.043Z,64.19
2019-05-09T09:56:04.050Z,63.89
2019-05-09T09:57:04.026Z,64.70
2019-05-09T09:58:04.015Z,63.76
2019-05-09T09:59:03.999Z,64.90
2019-05-09T10:00:03.996Z,63.65
2019-05-09T10:01:04.095Z,64.36
2019-05-09T10:02:04.143Z,64.26
2019-05-09T10:03:03.958Z,62.85
2019-05-09T10:04:19.116Z,62.44
2019-05-09T10:05:04.938Z,62.85
2019-05-09T10:06:03.925Z,63.76
2019-05-09T10:07:03.923Z,64.84
2019-05-09T10:08:03.912Z,60.57
2019-05-09T10:09:03.894Z,60.87
2019-05-09T10:10:03.882Z,62.51
2019-05-09T10:11:03.872Z,61.57
2019-05-09T10:12:03.862Z,60.84
2019-05-09T10:13:04.326Z,60.38
2019-05-09T10:14:03.842Z,58.26
2019-05-09T10:15:03.829Z,58.14
2019-05-09T10:16:03.819Z,59.31
2019-05-09T10:17:03.822Z,58.34
2019-05-09T10:18:03.799Z,56.60
2019-05-09T10:19:03.785Z,57.70
2019-05-09T10:20:03.775Z,59.31
2019-05-09T10:21:03.766Z,60.32
2019-05-09T10:22:03.752Z,58.16
2019-05-09T10:23:15.060Z,58.59
2019-05-09T10:24:04.732Z,58.75
2019-05-09T10:25:03.723Z,60.62
2019-05-09T10:26:03.720Z,61.05
2019-05-09T10:27:03.699Z,61.19
2019-05-09T10:28:03.694Z,61.92
2019-05-09T10:29:03.693Z,63.87
2019-05-09T10:30:03.667Z,63.67
2019-05-09T10:31:03.656Z,64.21
2019-05-09T10:32:03.651Z,64.21
2019-05-09T10:33:03.635Z,64.92
2019-05-09T10:34:03.623Z,64.72
2019-05-09T10:35:03.613Z,66.64
2019-05-09T10:36:04.878Z,67.35
2019-05-09T10:37:03.593Z,65.96
2019-05-09T10:38:03.582Z,66.03
2019-05-09T10:39:03.580Z,65.22
2019-05-09T10:40:03.587Z,64.44
2019-05-09T10:41:03.688Z,65.93
2019-05-09T10:42:03.537Z,64.01
2019-05-09T10:43:03.526Z,63.87
2019-05-09T10:44:03.525Z,64.79
2019-05-09T10:45:03.505Z,64.58
2019-05-09T10:46:03.493Z,64.45
2019-05-09T10:47:03.485Z,64.35
2019-05-09T10:48:03.472Z,62.84
2019-05-09T10:49:03.525Z,62.40
2019-05-09T10:50:03.450Z,64.49
2019-05-09T10:51:05.964Z,62.85
2019-05-09T10:52:03.429Z,61.10
2019-05-09T10:53:03.504Z,61.47
2019-05-09T10:54:03.414Z,61.68
2019-05-09T10:55:03.395Z,60.49
2019-05-09T10:56:03.384Z,59.61
2019-05-09T10:57:03.373Z,62.04
2019-05-09T10:58:03.364Z,60.80
2019-05-09T10:59:03.353Z,61.17
2019-05-09T11:00:03.625Z,61.07
2019-05-09T11:01:03.330Z,58.25
2019-05-09T11:02:03.321Z,58.54
2019-05-09T11:03:03.310Z,58.34
2019-05-09T11:04:03.318Z,59.42
2019-05-09T11:05:03.300Z,58.01
2019-05-09T11:06:03.278Z,58.52
2019-05-09T11:07:03.287Z,58.45
2019-05-09T11:08:03.254Z,59.56
2019-05-09T11:09:03.250Z,58.14
2019-05-09T11:10:03.237Z,59.45
2019-05-09T11:11:06.040Z,58.54
2019-05-09T11:12:04.211Z,57.84
2019-05-09T11:13:03.213Z,57.43
2019-05-09T11:14:03.201Z,57.54
2019-05-09T11:15:03.179Z,57.23
2019-05-09T11:16:03.199Z,56.56
2019-05-09T11:17:10.798Z,57.59
2019-05-09T11:18:04.145Z,58.00
2019-05-09T11:19:03.137Z,59.91
2019-05-09T11:20:03.131Z,59.54
2019-05-09T11:21:03.149Z,60.07
2019-05-09T11:22:03.117Z,60.27
2019-05-09T11:23:03.094Z,60.71
2019-05-09T11:24:03.090Z,61.82
2019-05-09T11:25:03.107Z,62.56
2019-05-09T11:26:03.059Z,63.78
2019-05-09T11:27:03.050Z,64.41
2019-05-09T11:28:10.388Z,65.76
2019-05-09T11:29:04.031Z,68.40
2019-05-09T11:30:03.016Z,70.76
2019-05-09T11:31:03.006Z,71.67
2019-05-09T11:32:03.004Z,72.72
2019-05-09T11:33:02.987Z,74.24
2019-05-09T11:34:02.975Z,73.36
2019-05-09T11:35:02.963Z,74.07
2019-05-09T11:36:02.976Z,76.34
2019-05-09T11:37:02.942Z,78.98
2019-05-09T11:38:02.932Z,79.59
2019-05-09T11:39:02.959Z,81.86
2019-05-09T11:40:02.909Z,82.06
2019-05-09T11:41:02.898Z,83.32
2019-05-09T11:42:02.891Z,83.53
2019-05-09T11:43:02.898Z,83.01
2019-05-09T11:44:02.885Z,81.59
2019-05-09T11:45:02.855Z,83.22
2019-05-09T11:46:02.846Z,84.13
2019-05-09T11:47:02.834Z,84.44
2019-05-09T11:48:02.823Z,83.73
2019-05-09T11:49:02.814Z,84.50
2019-05-09T11:50:02.804Z,82.61
2019-05-09T11:51:02.794Z,83.42
2019-05-09T11:52:02.781Z,84.34
2019-05-09T11:53:02.783Z,84.03
2019-05-09T11:54:02.766Z,84.34
2019-05-09T11:55:02.753Z,83.42
2019-05-09T11:56:02.740Z,83.59
2019-05-09T11:57:02.726Z,83.18
2019-05-09T11:58:02.716Z,83.65
2019-05-09T11:59:02.704Z,83.24
2019-05-09T12:00:02.695Z,82.03
2019-05-09T12:01:03.452Z,81.38
2019-05-09T12:02:02.676Z,82.29
2019-05-09T12:03:02.672Z,82.45
2019-05-09T12:04:02.652Z,83.12
2019-05-09T12:05:02.645Z,82.07
2019-05-09T12:06:02.631Z,79.94
2019-05-09T12:07:02.624Z,79.80
2019-05-09T12:08:02.629Z,79.60
2019-05-09T12:09:02.597Z,77.75
2019-05-09T12:10:02.663Z,79.46
2019-05-09T12:11:02.579Z,78.31
2019-05-09T12:12:02.568Z,75.48
2019-05-09T12:13:02.563Z,74.27
2019-05-09T12:14:02.545Z,74.67
2019-05-09T12:15:02.534Z,74.67
2019-05-09T12:16:02.521Z,71.64
2019-05-09T12:17:02.528Z,72.92
2019-05-09T12:18:07.498Z,72.41
2019-05-09T12:19:03.487Z,71.57
2019-05-09T12:20:12.271Z,74.90
2019-05-09T12:21:03.477Z,75.44
2019-05-09T12:22:02.460Z,68.33
2019-05-09T12:23:02.475Z,65.82
2019-05-09T12:24:02.436Z,63.28
2019-05-09T12:25:02.446Z,60.38
2019-05-09T12:26:02.415Z,63.50
2019-05-09T12:27:03.180Z,58.23
2019-05-09T12:28:02.391Z,52.32
2019-05-09T12:29:02.385Z,54.52
2019-05-09T12:30:02.370Z,56.70
2019-05-09T12:31:02.358Z,55.00
2019-05-09T12:32:02.350Z,55.30
2019-05-09T12:33:02.344Z,55.00
2019-05-09T12:34:02.329Z,58.20
2019-05-09T12:35:02.626Z,58.50
2019-05-09T12:36:02.306Z,58.37
2019-05-09T12:37:02.296Z,61.66
2019-05-09T12:38:02.286Z,59.92
2019-05-09T12:39:02.275Z,59.89
2019-05-09T12:40:02.266Z,58.26
2019-05-09T12:41:02.261Z,59.06
2019-05-09T12:42:02.267Z,59.23
2019-05-09T12:43:02.243Z,58.94
2019-05-09T12:44:02.232Z,59.83
2019-05-09T12:45:02.225Z,58.73
2019-05-09T12:46:02.203Z,56.33
2019-05-09T12:47:02.192Z,57.63
2019-05-09T12:48:10.405Z,57.06
2019-05-09T12:49:03.169Z,56.38
2019-05-09T12:50:02.884Z,56.56
2019-05-09T12:51:02.227Z,56.78
2019-05-09T12:52:02.176Z,57.59